sensor_id;sensor_type;location;lat;lon;timestamp;P1;durP1;ratioP1;P2;durP2;ratioP2
40533;SDS011;26233;51.894;10.192;2024-03-08T00:00:05;10.20;;;9.03;;
40533;SDS011;26233;51.894;10.192;2024-03-08T00:02:39;9.83;;;8.73;;
40533;SDS011;26233;51.894;10.192;2024-03-08T00:05:06;10.47;;;9.20;;
40533;SDS011;26233;51.894;10.192;2024-03-08T00:07:35;10.70;;;9.07;;
40533;SDS011;26233;51.894;10.192;2024-03-08T00:10:02;10.13;;;9.00;;
40533;SDS011;26233;51.894;10.192;2024-03-08T00:12:30;9.77;;;8.77;;
40533;SDS011;26233;51.894;10.192;2024-03-08T00:14:58;9.50;;;8.57;;
40533;SDS011;26233;51.894;10.192;2024-03-08T00:17:25;9.77;;;8.77;;
40533;SDS011;26233;51.894;10.192;2024-03-08T00:19:54;10.87;;;9.43;;
40533;SDS011;26233;51.894;10.192;2024-03-08T00:22:22;10.30;;;9.13;;
40533;SDS011;26233;51.894;10.192;2024-03-08T00:24:50;11.17;;;9.90;;
40533;SDS011;26233;51.894;10.192;2024-03-08T00:27:17;11.03;;;9.57;;
40533;SDS011;26233;51.894;10.192;2024-03-08T00:29:46;10.37;;;9.27;;
40533;SDS011;26233;51.894;10.192;2024-03-08T00:32:13;10.90;;;9.37;;
40533;SDS011;26233;51.894;10.192;2024-03-08T00:34:42;10.57;;;9.30;;
40533;SDS011;26233;51.894;10.192;2024-03-08T00:37:11;10.20;;;9.10;;
40533;SDS011;26233;51.894;10.192;2024-03-08T00:39:38;9.90;;;8.90;;
40533;SDS011;26233;51.894;10.192;2024-03-08T00:42:05;9.90;;;8.90;;
40533;SDS011;26233;51.894;10.192;2024-03-08T00:44:33;10.67;;;9.57;;
40533;SDS011;26233;51.894;10.192;2024-03-08T00:47:01;11.23;;;10.13;;
40533;SDS011;26233;51.894;10.192;2024-03-08T00:49:28;11.00;;;9.40;;
40533;SDS011;26233;51.894;10.192;2024-03-08T00:51:55;10.50;;;9.40;;
40533;SDS011;26233;51.894;10.192;2024-03-08T00:54:24;10.60;;;9.60;;
40533;SDS011;26233;51.894;10.192;2024-03-08T00:56:51;10.90;;;9.80;;
40533;SDS011;26233;51.894;10.192;2024-03-08T00:59:18;10.53;;;9.43;;
40533;SDS011;26233;51.894;10.192;2024-03-08T01:01:46;11.60;;;10.27;;
40533;SDS011;26233;51.894;10.192;2024-03-08T01:04:13;10.67;;;9.57;;
40533;SDS011;26233;51.894;10.192;2024-03-08T01:06:40;10.37;;;9.27;;
40533;SDS011;26233;51.894;10.192;2024-03-08T01:09:11;11.10;;;10.00;;
40533;SDS011;26233;51.894;10.192;2024-03-08T01:11:39;11.60;;;10.13;;
40533;SDS011;26233;51.894;10.192;2024-03-08T01:14:07;11.20;;;10.00;;
40533;SDS011;26233;51.894;10.192;2024-03-08T01:16:34;10.83;;;9.50;;
40533;SDS011;26233;51.894;10.192;2024-03-08T01:19:01;11.57;;;10.37;;
40533;SDS011;26233;51.894;10.192;2024-03-08T01:21:29;11.70;;;10.13;;
40533;SDS011;26233;51.894;10.192;2024-03-08T01:23:56;10.93;;;9.43;;
40533;SDS011;26233;51.894;10.192;2024-03-08T01:26:24;11.60;;;10.43;;
40533;SDS011;26233;51.894;10.192;2024-03-08T01:28:51;13.00;;;10.63;;
40533;SDS011;26233;51.894;10.192;2024-03-08T01:31:18;16.53;;;12.93;;
40533;SDS011;26233;51.894;10.192;2024-03-08T01:33:46;13.27;;;11.93;;
40533;SDS011;26233;51.894;10.192;2024-03-08T01:36:13;12.50;;;11.20;;
40533;SDS011;26233;51.894;10.192;2024-03-08T01:38:41;12.23;;;10.93;;
40533;SDS011;26233;51.894;10.192;2024-03-08T01:41:09;13.60;;;12.13;;
40533;SDS011;26233;51.894;10.192;2024-03-08T01:43:37;12.33;;;11.03;;
40533;SDS011;26233;51.894;10.192;2024-03-08T01:46:06;13.40;;;12.00;;
40533;SDS011;26233;51.894;10.192;2024-03-08T01:48:35;12.87;;;11.20;;
40533;SDS011;26233;51.894;10.192;2024-03-08T01:51:04;14.93;;;12.53;;
40533;SDS011;26233;51.894;10.192;2024-03-08T01:53:32;12.33;;;10.93;;
40533;SDS011;26233;51.894;10.192;2024-03-08T01:56:01;12.27;;;10.97;;
40533;SDS011;26233;51.894;10.192;2024-03-08T01:58:29;14.30;;;11.63;;
40533;SDS011;26233;51.894;10.192;2024-03-08T02:00:58;13.40;;;12.00;;
40533;SDS011;26233;51.894;10.192;2024-03-08T02:03:31;13.07;;;11.73;;
40533;SDS011;26233;51.894;10.192;2024-03-08T02:05:58;14.13;;;11.57;;
40533;SDS011;26233;51.894;10.192;2024-03-08T02:08:25;13.47;;;11.40;;
40533;SDS011;26233;51.894;10.192;2024-03-08T02:10:53;12.87;;;11.57;;
40533;SDS011;26233;51.894;10.192;2024-03-08T02:13:20;12.57;;;11.23;;
40533;SDS011;26233;51.894;10.192;2024-03-08T02:15:50;16.03;;;12.73;;
40533;SDS011;26233;51.894;10.192;2024-03-08T02:18:19;13.13;;;11.70;;
40533;SDS011;26233;51.894;10.192;2024-03-08T02:20:48;12.70;;;11.40;;
40533;SDS011;26233;51.894;10.192;2024-03-08T02:23:16;12.93;;;11.57;;
40533;SDS011;26233;51.894;10.192;2024-03-08T02:25:44;12.43;;;11.13;;
40533;SDS011;26233;51.894;10.192;2024-03-08T02:28:12;12.73;;;11.43;;
40533;SDS011;26233;51.894;10.192;2024-03-08T02:30:41;15.53;;;12.70;;
40533;SDS011;26233;51.894;10.192;2024-03-08T02:33:08;13.20;;;11.77;;
40533;SDS011;26233;51.894;10.192;2024-03-08T02:35:35;13.50;;;11.53;;
40533;SDS011;26233;51.894;10.192;2024-03-08T02:38:04;13.43;;;11.47;;
40533;SDS011;26233;51.894;10.192;2024-03-08T02:40:32;12.93;;;11.53;;
40533;SDS011;26233;51.894;10.192;2024-03-08T02:42:59;15.17;;;12.10;;
40533;SDS011;26233;51.894;10.192;2024-03-08T02:45:26;15.60;;;12.23;;
40533;SDS011;26233;51.894;10.192;2024-03-08T02:47:53;14.73;;;11.70;;
40533;SDS011;26233;51.894;10.192;2024-03-08T02:50:21;13.07;;;11.53;;
40533;SDS011;26233;51.894;10.192;2024-03-08T02:52:50;13.17;;;11.77;;
40533;SDS011;26233;51.894;10.192;2024-03-08T02:55:19;13.70;;;12.17;;
40533;SDS011;26233;51.894;10.192;2024-03-08T02:57:46;14.10;;;12.40;;
40533;SDS011;26233;51.894;10.192;2024-03-08T03:00:13;12.33;;;11.03;;
40533;SDS011;26233;51.894;10.192;2024-03-08T03:02:41;14.10;;;12.70;;
40533;SDS011;26233;51.894;10.192;2024-03-08T03:05:08;13.03;;;11.60;;
40533;SDS011;26233;51.894;10.192;2024-03-08T03:07:36;14.43;;;11.77;;
40533;SDS011;26233;51.894;10.192;2024-03-08T03:10:04;11.73;;;10.53;;
40533;SDS011;26233;51.894;10.192;2024-03-08T03:12:34;13.30;;;11.67;;
40533;SDS011;26233;51.894;10.192;2024-03-08T03:15:02;13.53;;;12.13;;
40533;SDS011;26233;51.894;10.192;2024-03-08T03:17:29;15.90;;;12.07;;
40533;SDS011;26233;51.894;10.192;2024-03-08T03:19:56;12.23;;;11.03;;
40533;SDS011;26233;51.894;10.192;2024-03-08T03:22:24;13.67;;;11.93;;
40533;SDS011;26233;51.894;10.192;2024-03-08T03:24:51;14.30;;;12.00;;
40533;SDS011;26233;51.894;10.192;2024-03-08T03:27:19;13.03;;;11.70;;
40533;SDS011;26233;51.894;10.192;2024-03-08T03:29:47;13.73;;;11.37;;
40533;SDS011;26233;51.894;10.192;2024-03-08T03:32:14;15.67;;;12.97;;
40533;SDS011;26233;51.894;10.192;2024-03-08T03:34:43;13.57;;;12.10;;
40533;SDS011;26233;51.894;10.192;2024-03-08T03:37:11;14.00;;;12.50;;
40533;SDS011;26233;51.894;10.192;2024-03-08T03:39:38;14.63;;;12.60;;
40533;SDS011;26233;51.894;10.192;2024-03-08T03:42:14;12.83;;;11.40;;
40533;SDS011;26233;51.894;10.192;2024-03-08T03:44:41;13.63;;;11.60;;
40533;SDS011;26233;51.894;10.192;2024-03-08T03:47:12;13.67;;;12.27;;
40533;SDS011;26233;51.894;10.192;2024-03-08T03:49:39;13.57;;;11.73;;
40533;SDS011;26233;51.894;10.192;2024-03-08T03:52:07;13.77;;;11.77;;
40533;SDS011;26233;51.894;10.192;2024-03-08T03:54:34;14.13;;;12.47;;
40533;SDS011;26233;51.894;10.192;2024-03-08T03:57:01;14.90;;;12.80;;
40533;SDS011;26233;51.894;10.192;2024-03-08T03:59:29;14.90;;;13.00;;
40533;SDS011;26233;51.894;10.192;2024-03-08T04:01:56;14.63;;;12.73;;
40533;SDS011;26233;51.894;10.192;2024-03-08T04:04:25;15.13;;;12.47;;
40533;SDS011;26233;51.894;10.192;2024-03-08T04:06:52;13.53;;;12.13;;
40533;SDS011;26233;51.894;10.192;2024-03-08T04:09:19;14.00;;;12.33;;
40533;SDS011;26233;51.894;10.192;2024-03-08T04:11:47;13.57;;;12.10;;
40533;SDS011;26233;51.894;10.192;2024-03-08T04:14:15;14.77;;;12.93;;
40533;SDS011;26233;51.894;10.192;2024-03-08T04:16:42;14.73;;;12.30;;
40533;SDS011;26233;51.894;10.192;2024-03-08T04:19:09;14.30;;;12.30;;
40533;SDS011;26233;51.894;10.192;2024-03-08T04:21:38;13.03;;;11.67;;
40533;SDS011;26233;51.894;10.192;2024-03-08T04:24:05;13.90;;;12.47;;
40533;SDS011;26233;51.894;10.192;2024-03-08T04:26:34;13.70;;;12.17;;
40533;SDS011;26233;51.894;10.192;2024-03-08T04:29:01;13.77;;;11.90;;
40533;SDS011;26233;51.894;10.192;2024-03-08T04:31:28;13.70;;;12.00;;
40533;SDS011;26233;51.894;10.192;2024-03-08T04:33:56;12.87;;;11.50;;
40533;SDS011;26233;51.894;10.192;2024-03-08T04:36:24;13.53;;;11.83;;
40533;SDS011;26233;51.894;10.192;2024-03-08T04:38:53;12.80;;;11.30;;
40533;SDS011;26233;51.894;10.192;2024-03-08T04:41:20;15.43;;;12.93;;
40533;SDS011;26233;51.894;10.192;2024-03-08T04:43:48;15.60;;;13.43;;
40533;SDS011;26233;51.894;10.192;2024-03-08T04:46:16;14.43;;;12.77;;
40533;SDS011;26233;51.894;10.192;2024-03-08T04:48:43;15.30;;;12.73;;
40533;SDS011;26233;51.894;10.192;2024-03-08T04:51:10;13.73;;;12.27;;
40533;SDS011;26233;51.894;10.192;2024-03-08T04:53:37;14.67;;;12.50;;
40533;SDS011;26233;51.894;10.192;2024-03-08T04:56:06;13.87;;;11.97;;
40533;SDS011;26233;51.894;10.192;2024-03-08T04:58:35;14.37;;;12.60;;
40533;SDS011;26233;51.894;10.192;2024-03-08T05:01:02;13.70;;;12.27;;
40533;SDS011;26233;51.894;10.192;2024-03-08T05:03:30;14.73;;;12.93;;
40533;SDS011;26233;51.894;10.192;2024-03-08T05:05:57;14.93;;;13.37;;
40533;SDS011;26233;51.894;10.192;2024-03-08T05:08:24;15.50;;;13.50;;
40533;SDS011;26233;51.894;10.192;2024-03-08T05:10:51;14.47;;;12.90;;
40533;SDS011;26233;51.894;10.192;2024-03-08T05:13:20;14.20;;;12.77;;
40533;SDS011;26233;51.894;10.192;2024-03-08T05:15:48;15.03;;;13.03;;
40533;SDS011;26233;51.894;10.192;2024-03-08T05:18:16;14.53;;;12.70;;
40533;SDS011;26233;51.894;10.192;2024-03-08T05:20:43;15.73;;;12.70;;
40533;SDS011;26233;51.894;10.192;2024-03-08T05:23:10;14.67;;;12.83;;
40533;SDS011;26233;51.894;10.192;2024-03-08T05:25:38;14.27;;;12.87;;
40533;SDS011;26233;51.894;10.192;2024-03-08T05:28:06;16.03;;;13.23;;
40533;SDS011;26233;51.894;10.192;2024-03-08T05:30:35;14.97;;;12.60;;
40533;SDS011;26233;51.894;10.192;2024-03-08T05:33:04;14.77;;;12.40;;
40533;SDS011;26233;51.894;10.192;2024-03-08T05:35:35;18.17;;;14.60;;
40533;SDS011;26233;51.894;10.192;2024-03-08T05:38:02;18.47;;;15.13;;
40533;SDS011;26233;51.894;10.192;2024-03-08T05:40:30;18.87;;;15.67;;
40533;SDS011;26233;51.894;10.192;2024-03-08T05:42:57;17.43;;;14.67;;
40533;SDS011;26233;51.894;10.192;2024-03-08T05:45:25;15.33;;;12.93;;
40533;SDS011;26233;51.894;10.192;2024-03-08T05:47:54;18.20;;;15.33;;
40533;SDS011;26233;51.894;10.192;2024-03-08T05:50:21;16.13;;;14.07;;
40533;SDS011;26233;51.894;10.192;2024-03-08T05:52:48;15.17;;;13.40;;
40533;SDS011;26233;51.894;10.192;2024-03-08T05:55:16;15.67;;;14.00;;
40533;SDS011;26233;51.894;10.192;2024-03-08T05:57:43;15.87;;;13.10;;
40533;SDS011;26233;51.894;10.192;2024-03-08T06:00:10;15.80;;;14.07;;
40533;SDS011;26233;51.894;10.192;2024-03-08T06:02:40;18.03;;;14.70;;
40533;SDS011;26233;51.894;10.192;2024-03-08T06:05:10;17.63;;;14.67;;
40533;SDS011;26233;51.894;10.192;2024-03-08T06:07:37;16.57;;;14.80;;
40533;SDS011;26233;51.894;10.192;2024-03-08T06:10:06;17.20;;;15.13;;
40533;SDS011;26233;51.894;10.192;2024-03-08T06:12:36;18.53;;;15.20;;
40533;SDS011;26233;51.894;10.192;2024-03-08T06:15:06;19.00;;;16.17;;
40533;SDS011;26233;51.894;10.192;2024-03-08T06:17:35;17.30;;;14.57;;
40533;SDS011;26233;51.894;10.192;2024-03-08T06:20:02;16.93;;;15.00;;
40533;SDS011;26233;51.894;10.192;2024-03-08T06:22:36;15.43;;;13.80;;
40533;SDS011;26233;51.894;10.192;2024-03-08T06:25:06;15.23;;;13.63;;
40533;SDS011;26233;51.894;10.192;2024-03-08T06:27:34;17.33;;;14.37;;
40533;SDS011;26233;51.894;10.192;2024-03-08T06:30:01;16.27;;;14.17;;
40533;SDS011;26233;51.894;10.192;2024-03-08T06:32:29;16.27;;;14.07;;
40533;SDS011;26233;51.894;10.192;2024-03-08T06:35:00;16.07;;;14.37;;
40533;SDS011;26233;51.894;10.192;2024-03-08T06:37:29;16.03;;;14.30;;
40533;SDS011;26233;51.894;10.192;2024-03-08T06:39:58;17.13;;;14.20;;
40533;SDS011;26233;51.894;10.192;2024-03-08T06:42:26;16.73;;;14.13;;
40533;SDS011;26233;51.894;10.192;2024-03-08T06:44:53;16.70;;;14.93;;
40533;SDS011;26233;51.894;10.192;2024-03-08T06:47:25;15.97;;;14.33;;
40533;SDS011;26233;51.894;10.192;2024-03-08T06:49:52;15.30;;;13.70;;
40533;SDS011;26233;51.894;10.192;2024-03-08T06:52:19;17.17;;;14.70;;
40533;SDS011;26233;51.894;10.192;2024-03-08T06:54:47;17.27;;;14.97;;
40533;SDS011;26233;51.894;10.192;2024-03-08T06:57:15;18.33;;;15.53;;
40533;SDS011;26233;51.894;10.192;2024-03-08T06:59:43;16.30;;;14.17;;
40533;SDS011;26233;51.894;10.192;2024-03-08T07:02:10;16.97;;;15.17;;
40533;SDS011;26233;51.894;10.192;2024-03-08T07:04:37;17.10;;;15.30;;
40533;SDS011;26233;51.894;10.192;2024-03-08T07:07:04;17.37;;;15.10;;
40533;SDS011;26233;51.894;10.192;2024-03-08T07:09:34;17.57;;;15.33;;
40533;SDS011;26233;51.894;10.192;2024-03-08T07:12:02;17.83;;;15.83;;
40533;SDS011;26233;51.894;10.192;2024-03-08T07:14:31;16.17;;;14.50;;
40533;SDS011;26233;51.894;10.192;2024-03-08T07:16:58;16.63;;;14.83;;
40533;SDS011;26233;51.894;10.192;2024-03-08T07:19:25;16.80;;;15.07;;
40533;SDS011;26233;51.894;10.192;2024-03-08T07:21:52;16.53;;;14.83;;
40533;SDS011;26233;51.894;10.192;2024-03-08T07:24:20;16.53;;;14.83;;
40533;SDS011;26233;51.894;10.192;2024-03-08T07:27:05;16.90;;;15.17;;
40533;SDS011;26233;51.894;10.192;2024-03-08T07:29:34;16.60;;;14.90;;
40533;SDS011;26233;51.894;10.192;2024-03-08T07:32:01;17.53;;;14.90;;
40533;SDS011;26233;51.894;10.192;2024-03-08T07:34:43;16.20;;;14.47;;
40533;SDS011;26233;51.894;10.192;2024-03-08T07:37:10;15.73;;;14.13;;
40533;SDS011;26233;51.894;10.192;2024-03-08T07:39:37;16.70;;;15.00;;
40533;SDS011;26233;51.894;10.192;2024-03-08T07:42:05;16.03;;;14.33;;
40533;SDS011;26233;51.894;10.192;2024-03-08T07:44:34;15.63;;;14.03;;
40533;SDS011;26233;51.894;10.192;2024-03-08T07:47:01;16.07;;;14.33;;
40533;SDS011;26233;51.894;10.192;2024-03-08T07:49:28;16.45;;;14.57;;
40533;SDS011;26233;51.894;10.192;2024-03-08T07:51:56;16.75;;;15.07;;
40533;SDS011;26233;51.894;10.192;2024-03-08T07:54:23;16.40;;;14.75;;
40533;SDS011;26233;51.894;10.192;2024-03-08T07:56:51;16.30;;;14.70;;
40533;SDS011;26233;51.894;10.192;2024-03-08T07:59:18;15.60;;;14.00;;
40533;SDS011;26233;51.894;10.192;2024-03-08T08:01:47;16.65;;;14.90;;
40533;SDS011;26233;51.894;10.192;2024-03-08T08:04:14;16.02;;;14.43;;
40533;SDS011;26233;51.894;10.192;2024-03-08T08:06:43;16.80;;;15.02;;
40533;SDS011;26233;51.894;10.192;2024-03-08T08:09:10;16.35;;;14.75;;
40533;SDS011;26233;51.894;10.192;2024-03-08T08:11:40;16.40;;;14.90;;
40533;SDS011;26233;51.894;10.192;2024-03-08T08:14:08;17.23;;;15.60;;
40533;SDS011;26233;51.894;10.192;2024-03-08T08:16:36;17.02;;;15.35;;
40533;SDS011;26233;51.894;10.192;2024-03-08T08:19:04;15.57;;;14.07;;
40533;SDS011;26233;51.894;10.192;2024-03-08T08:21:33;16.17;;;14.68;;
40533;SDS011;26233;51.894;10.192;2024-03-08T08:24:02;16.48;;;14.88;;
40533;SDS011;26233;51.894;10.192;2024-03-08T08:26:29;16.70;;;15.20;;
40533;SDS011;26233;51.894;10.192;2024-03-08T08:28:58;16.70;;;15.25;;
40533;SDS011;26233;51.894;10.192;2024-03-08T08:31:25;16.23;;;14.77;;
40533;SDS011;26233;51.894;10.192;2024-03-08T08:33:53;15.98;;;14.57;;
40533;SDS011;26233;51.894;10.192;2024-03-08T08:36:25;15.23;;;13.82;;
40533;SDS011;26233;51.894;10.192;2024-03-08T08:38:54;15.15;;;13.55;;
40533;SDS011;26233;51.894;10.192;2024-03-08T08:41:23;15.15;;;13.85;;
40533;SDS011;26233;51.894;10.192;2024-03-08T08:43:50;16.55;;;15.02;;
40533;SDS011;26233;51.894;10.192;2024-03-08T08:46:18;16.95;;;15.45;;
40533;SDS011;26233;51.894;10.192;2024-03-08T08:48:46;16.63;;;15.02;;
40533;SDS011;26233;51.894;10.192;2024-03-08T08:51:14;17.27;;;15.70;;
40533;SDS011;26233;51.894;10.192;2024-03-08T08:53:42;16.98;;;15.38;;
40533;SDS011;26233;51.894;10.192;2024-03-08T08:56:10;16.50;;;14.85;;
40533;SDS011;26233;51.894;10.192;2024-03-08T08:58:38;16.10;;;14.52;;
40533;SDS011;26233;51.894;10.192;2024-03-08T09:01:06;16.75;;;15.05;;
40533;SDS011;26233;51.894;10.192;2024-03-08T09:03:35;16.15;;;14.55;;
40533;SDS011;26233;51.894;10.192;2024-03-08T09:06:02;16.85;;;15.18;;
40533;SDS011;26233;51.894;10.192;2024-03-08T09:08:30;17.05;;;15.45;;
40533;SDS011;26233;51.894;10.192;2024-03-08T09:11:01;17.73;;;16.02;;
40533;SDS011;26233;51.894;10.192;2024-03-08T09:13:28;17.60;;;15.82;;
40533;SDS011;26233;51.894;10.192;2024-03-08T09:15:55;16.63;;;15.02;;
40533;SDS011;26233;51.894;10.192;2024-03-08T09:18:23;16.55;;;14.95;;
40533;SDS011;26233;51.894;10.192;2024-03-08T09:20:50;15.65;;;14.20;;
40533;SDS011;26233;51.894;10.192;2024-03-08T09:23:19;17.00;;;15.10;;
40533;SDS011;26233;51.894;10.192;2024-03-08T09:25:46;17.58;;;15.98;;
40533;SDS011;26233;51.894;10.192;2024-03-08T09:28:15;19.17;;;17.30;;
40533;SDS011;26233;51.894;10.192;2024-03-08T09:30:42;18.60;;;15.80;;
40533;SDS011;26233;51.894;10.192;2024-03-08T09:33:09;16.58;;;15.07;;
40533;SDS011;26233;51.894;10.192;2024-03-08T09:35:37;17.33;;;15.73;;
40533;SDS011;26233;51.894;10.192;2024-03-08T09:38:04;16.92;;;15.43;;
40533;SDS011;26233;51.894;10.192;2024-03-08T09:40:31;16.83;;;15.23;;
40533;SDS011;26233;51.894;10.192;2024-03-08T09:42:58;17.15;;;15.63;;
40533;SDS011;26233;51.894;10.192;2024-03-08T09:45:27;16.42;;;14.93;;
40533;SDS011;26233;51.894;10.192;2024-03-08T09:47:58;17.10;;;15.50;;
40533;SDS011;26233;51.894;10.192;2024-03-08T09:50:25;16.55;;;15.05;;
40533;SDS011;26233;51.894;10.192;2024-03-08T09:52:54;16.00;;;14.50;;
40533;SDS011;26233;51.894;10.192;2024-03-08T09:55:23;15.82;;;14.43;;
40533;SDS011;26233;51.894;10.192;2024-03-08T09:57:57;15.77;;;14.27;;
40533;SDS011;26233;51.894;10.192;2024-03-08T10:01:03;16.13;;;14.45;;
40533;SDS011;26233;51.894;10.192;2024-03-08T10:03:31;15.02;;;13.70;;
40533;SDS011;26233;51.894;10.192;2024-03-08T10:05:58;16.67;;;15.18;;
40533;SDS011;26233;51.894;10.192;2024-03-08T10:08:27;15.40;;;13.98;;
40533;SDS011;26233;51.894;10.192;2024-03-08T10:10:55;17.33;;;15.63;;
40533;SDS011;26233;51.894;10.192;2024-03-08T10:13:23;16.20;;;14.80;;
40533;SDS011;26233;51.894;10.192;2024-03-08T10:15:53;15.60;;;14.20;;
40533;SDS011;26233;51.894;10.192;2024-03-08T10:18:21;16.13;;;14.63;;
40533;SDS011;26233;51.894;10.192;2024-03-08T10:21:01;15.95;;;14.55;;
40533;SDS011;26233;51.894;10.192;2024-03-08T10:23:30;16.63;;;15.02;;
40533;SDS011;26233;51.894;10.192;2024-03-08T10:26:08;18.40;;;16.63;;
40533;SDS011;26233;51.894;10.192;2024-03-08T10:28:40;17.52;;;15.93;;
40533;SDS011;26233;51.894;10.192;2024-03-08T10:31:08;17.10;;;15.60;;
40533;SDS011;26233;51.894;10.192;2024-03-08T10:33:37;17.15;;;15.60;;
40533;SDS011;26233;51.894;10.192;2024-03-08T10:36:06;16.58;;;15.07;;
40533;SDS011;26233;51.894;10.192;2024-03-08T10:38:35;16.20;;;14.77;;
40533;SDS011;26233;51.894;10.192;2024-03-08T10:41:06;16.23;;;14.75;;
40533;SDS011;26233;51.894;10.192;2024-03-08T10:43:38;14.85;;;13.48;;
40533;SDS011;26233;51.894;10.192;2024-03-08T10:46:35;15.60;;;14.10;;
40533;SDS011;26233;51.894;10.192;2024-03-08T10:49:22;15.35;;;13.95;;
40533;SDS011;26233;51.894;10.192;2024-03-08T10:51:59;15.57;;;14.18;;
40533;SDS011;26233;51.894;10.192;2024-03-08T10:54:30;15.25;;;13.85;;
40533;SDS011;26233;51.894;10.192;2024-03-08T10:57:00;15.63;;;14.13;;
40533;SDS011;26233;51.894;10.192;2024-03-08T10:59:31;15.48;;;14.07;;
40533;SDS011;26233;51.894;10.192;2024-03-08T11:01:59;15.77;;;14.38;;
40533;SDS011;26233;51.894;10.192;2024-03-08T11:04:27;15.10;;;13.75;;
40533;SDS011;26233;51.894;10.192;2024-03-08T11:06:59;15.63;;;14.13;;
40533;SDS011;26233;51.894;10.192;2024-03-08T11:09:31;16.23;;;14.63;;
40533;SDS011;26233;51.894;10.192;2024-03-08T11:12:18;14.65;;;13.25;;
40533;SDS011;26233;51.894;10.192;2024-03-08T11:14:54;15.60;;;14.15;;
40533;SDS011;26233;51.894;10.192;2024-03-08T11:17:40;16.33;;;14.73;;
40533;SDS011;26233;51.894;10.192;2024-03-08T11:20:13;15.52;;;13.93;;
40533;SDS011;26233;51.894;10.192;2024-03-08T11:22:42;16.42;;;14.95;;
40533;SDS011;26233;51.894;10.192;2024-03-08T11:25:32;16.52;;;14.93;;
40533;SDS011;26233;51.894;10.192;2024-03-08T11:28:08;16.33;;;14.82;;
40533;SDS011;26233;51.894;10.192;2024-03-08T11:30:43;15.73;;;14.27;;
40533;SDS011;26233;51.894;10.192;2024-03-08T11:33:13;15.05;;;13.68;;
40533;SDS011;26233;51.894;10.192;2024-03-08T11:35:43;16.40;;;14.88;;
40533;SDS011;26233;51.894;10.192;2024-03-08T11:38:11;16.20;;;14.70;;
40533;SDS011;26233;51.894;10.192;2024-03-08T11:40:39;15.48;;;14.00;;
40533;SDS011;26233;51.894;10.192;2024-03-08T11:43:07;16.08;;;14.57;;
40533;SDS011;26233;51.894;10.192;2024-03-08T11:45:35;15.65;;;14.23;;
40533;SDS011;26233;51.894;10.192;2024-03-08T11:48:03;17.25;;;15.65;;
40533;SDS011;26233;51.894;10.192;2024-03-08T11:50:30;19.23;;;17.33;;
40533;SDS011;26233;51.894;10.192;2024-03-08T11:53:03;16.05;;;14.27;;
40533;SDS011;26233;51.894;10.192;2024-03-08T11:55:31;16.85;;;15.27;;
40533;SDS011;26233;51.894;10.192;2024-03-08T11:58:01;17.80;;;16.10;;
40533;SDS011;26233;51.894;10.192;2024-03-08T12:00:29;17.67;;;15.95;;
40533;SDS011;26233;51.894;10.192;2024-03-08T12:03:03;16.88;;;15.27;;
40533;SDS011;26233;51.894;10.192;2024-03-08T12:05:32;17.77;;;16.05;;
40533;SDS011;26233;51.894;10.192;2024-03-08T12:08:00;17.08;;;15.45;;
40533;SDS011;26233;51.894;10.192;2024-03-08T12:10:31;17.90;;;16.20;;
40533;SDS011;26233;51.894;10.192;2024-03-08T12:13:00;17.70;;;16.02;;
40533;SDS011;26233;51.894;10.192;2024-03-08T12:15:28;18.20;;;16.40;;
40533;SDS011;26233;51.894;10.192;2024-03-08T12:17:58;20.50;;;18.40;;
40533;SDS011;26233;51.894;10.192;2024-03-08T12:20:26;19.00;;;17.20;;
40533;SDS011;26233;51.894;10.192;2024-03-08T12:22:56;19.25;;;17.38;;
40533;SDS011;26233;51.894;10.192;2024-03-08T12:25:26;18.10;;;16.42;;
40533;SDS011;26233;51.894;10.192;2024-03-08T12:28:06;16.33;;;14.75;;
40533;SDS011;26233;51.894;10.192;2024-03-08T12:30:36;17.45;;;15.80;;
40533;SDS011;26233;51.894;10.192;2024-03-08T12:33:13;18.85;;;16.88;;
40533;SDS011;26233;51.894;10.192;2024-03-08T12:35:49;19.33;;;17.35;;
40533;SDS011;26233;51.894;10.192;2024-03-08T12:38:19;19.02;;;17.05;;
40533;SDS011;26233;51.894;10.192;2024-03-08T12:40:50;18.52;;;16.83;;
40533;SDS011;26233;51.894;10.192;2024-03-08T12:43:23;16.98;;;15.35;;
40533;SDS011;26233;51.894;10.192;2024-03-08T12:45:50;17.85;;;16.15;;
40533;SDS011;26233;51.894;10.192;2024-03-08T12:48:17;19.05;;;17.15;;
40533;SDS011;26233;51.894;10.192;2024-03-08T12:50:46;17.30;;;15.55;;
40533;SDS011;26233;51.894;10.192;2024-03-08T12:53:13;16.83;;;15.20;;
40533;SDS011;26233;51.894;10.192;2024-03-08T12:55:41;19.17;;;17.27;;
40533;SDS011;26233;51.894;10.192;2024-03-08T12:58:08;18.85;;;16.85;;
40533;SDS011;26233;51.894;10.192;2024-03-08T13:00:37;19.60;;;17.70;;
40533;SDS011;26233;51.894;10.192;2024-03-08T13:03:08;19.77;;;17.88;;
40533;SDS011;26233;51.894;10.192;2024-03-08T13:05:36;21.50;;;19.35;;
40533;SDS011;26233;51.894;10.192;2024-03-08T13:08:05;19.13;;;17.23;;
40533;SDS011;26233;51.894;10.192;2024-03-08T13:10:37;19.13;;;17.23;;
40533;SDS011;26233;51.894;10.192;2024-03-08T13:13:05;18.38;;;16.58;;
40533;SDS011;26233;51.894;10.192;2024-03-08T13:15:33;17.50;;;15.88;;
40533;SDS011;26233;51.894;10.192;2024-03-08T13:18:01;18.05;;;16.25;;
40533;SDS011;26233;51.894;10.192;2024-03-08T13:20:31;19.40;;;17.50;;
40533;SDS011;26233;51.894;10.192;2024-03-08T13:22:58;18.77;;;16.98;;
40533;SDS011;26233;51.894;10.192;2024-03-08T13:25:27;18.73;;;16.92;;
40533;SDS011;26233;51.894;10.192;2024-03-08T13:27:54;18.60;;;16.88;;
40533;SDS011;26233;51.894;10.192;2024-03-08T13:30:24;18.90;;;17.10;;
40533;SDS011;26233;51.894;10.192;2024-03-08T13:32:52;17.45;;;15.75;;
40533;SDS011;26233;51.894;10.192;2024-03-08T13:35:21;20.42;;;18.33;;
40533;SDS011;26233;51.894;10.192;2024-03-08T13:37:52;18.40;;;16.65;;
40533;SDS011;26233;51.894;10.192;2024-03-08T13:40:19;19.25;;;17.42;;
40533;SDS011;26233;51.894;10.192;2024-03-08T13:42:46;19.75;;;17.85;;
40533;SDS011;26233;51.894;10.192;2024-03-08T13:45:15;17.73;;;15.95;;
40533;SDS011;26233;51.894;10.192;2024-03-08T13:47:47;19.58;;;17.67;;
40533;SDS011;26233;51.894;10.192;2024-03-08T13:50:16;18.65;;;16.85;;
40533;SDS011;26233;51.894;10.192;2024-03-08T13:52:48;18.10;;;16.30;;
40533;SDS011;26233;51.894;10.192;2024-03-08T13:55:16;18.65;;;16.65;;
40533;SDS011;26233;51.894;10.192;2024-03-08T13:57:43;19.35;;;17.40;;
40533;SDS011;26233;51.894;10.192;2024-03-08T14:00:12;18.92;;;17.13;;
40533;SDS011;26233;51.894;10.192;2024-03-08T14:02:40;17.75;;;15.95;;
40533;SDS011;26233;51.894;10.192;2024-03-08T14:05:08;19.85;;;17.85;;
40533;SDS011;26233;51.894;10.192;2024-03-08T14:07:37;19.88;;;17.95;;
40533;SDS011;26233;51.894;10.192;2024-03-08T14:10:06;20.98;;;18.92;;
40533;SDS011;26233;51.894;10.192;2024-03-08T14:12:34;20.13;;;18.02;;
40533;SDS011;26233;51.894;10.192;2024-03-08T14:15:03;19.25;;;17.35;;
40533;SDS011;26233;51.894;10.192;2024-03-08T14:17:32;18.25;;;16.45;;
40533;SDS011;26233;51.894;10.192;2024-03-08T14:19:59;18.30;;;16.50;;